Meteo Giornale » Osservazioni meteo Germania » Bueckeburg
ore: 14:20 - Osservazioni Meteo Bueckeburg
Lat. 52° 17' N Lon. 9° 5' E Alt. 70 metri s.l.m.
17 °C
Pioggia
Temp. 24 Ore
15 °C
20 °C
Ovest
18.5 Km/h
Dew point 16 °C
Umidità 93 %
Visibilità 9 Km
Il sole sorge alle ore 06:35
Il sole tramonta alle ore 20:12
| Data e Ora | Cielo e Fenomeni | T °C | DP °C | Um. % | Pres. hPa | Vis. km | Vento km/h | |
|---|---|---|---|---|---|---|---|---|
| Oggi h: 14:20 | Pioggia | 17 | 16 | 93 | 1019 | 9 | O 18.5 | |
| Oggi h: 13:20 | Pioggia nelle vicinanze | 20 | 13 | 64 | 1018 | 10 | O/SO 20.3 | |
| Oggi h: 12:20 | Molto Nuvoloso | 20 | 13 | 64 | 1018 | 10 | O 22.2 | |
| Oggi h: 11:20 | Molto Nuvoloso | 19 | 14 | 72 | 1018 | 10 | O 20.3 | |
| Oggi h: 10:20 | Molto Nuvoloso | 18 | 14 | 77 | 1018 | 10 | O 24 | |
| Oggi h: 09:20 | Molto Nuvoloso | 17 | 14 | 82 | 1017 | 10 | O/SO 22.2 | |
| Oggi h: 08:20 | Nuvoloso | 16 | 14 | 87 | 1017 | 9 | O/SO 14.8 | |
| Oggi h: 07:20 | Nuvoloso | 15 | 13 | 87 | 1016 | 9 | O/SO 18.5 | |
| Oggi h: 06:20 | Nuvoloso | 15 | 13 | 87 | 1016 | 10 | SO 14.8 | |
| Oggi h: 05:20 | Nuvoloso | 15 | 13 | 87 | 1016 | 10 | O/SO 14.8 | |
| Oggi h: 04:20 | Poco Nuvoloso | 15 | 13 | 87 | 1015 | 10 | O/SO 18.5 | |
| Oggi h: 03:20 | Poco Nuvoloso | 15 | 13 | 87 | 1015 | 10 | O/SO 16.7 | |
| Oggi h: 02:20 | Nuvoloso | 15 | 13 | 87 | 1015 | 10 | O/SO 18.5 | |
| Oggi h: 01:20 | Molto Nuvoloso | 16 | 13 | 82 | 1014 | 10 | O/SO 16.7 | |
| Oggi h: 00:20 | Molto Nuvoloso | 15 | 13 | 87 | 1014 | 10 | O 16.7 | |
| Ieri h: 23:20 | Molto Nuvoloso | 16 | 13 | 82 | 1014 | 10 | O 18.5 | |
| Ieri h: 22:20 | Pioggia | 16 | 13 | 82 | 1013 | 10 | SO 20.3 | |
| Ieri h: 21:20 | Molto Nuvoloso | 16 | 13 | 82 | 1012 | 10 | SO 14.8 | |
| Ieri h: 20:20 | Pioggia | 16 | 13 | 82 | 1012 | 9 | O/SO 18.5 | |
| Ieri h: 19:20 | Nuvoloso | 17 | 12 | 72 | 1011 | 10 | O/SO 20.3 | |
| Ieri h: 18:20 | Pioggia | 18 | 13 | 72 | 1011 | 10 | O/SO 22.2 | |
| Ieri h: 17:20 | Molto Nuvoloso | 18 | 14 | 77 | 1010 | 10 | SO 24 | |
| Ieri h: 16:20 | Pioggia | 20 | 11 | 56 | 1010 | 10 | O/SO 35.2 | |



